sensor_id;sensor_type;location;lat;lon;timestamp;pressure;altitude;pressure_sealevel;temperature;humidity
50867;BME280;36839;51.946;21.002;2023-04-19T00:01:02;100421.57;;;9.33;100.00
50867;BME280;36839;51.946;21.002;2023-04-19T00:03:29;100420.61;;;9.30;100.00
50867;BME280;36839;51.946;21.002;2023-04-19T00:05:57;100419.17;;;9.30;100.00
50867;BME280;36839;51.946;21.002;2023-04-19T00:08:26;100416.04;;;9.27;100.00
50867;BME280;36839;51.946;21.002;2023-04-19T00:10:54;100412.45;;;9.27;100.00
50867;BME280;36839;51.946;21.002;2023-04-19T00:13:22;100412.10;;;9.26;100.00
50867;BME280;36839;51.946;21.002;2023-04-19T00:15:50;100403.23;;;9.25;100.00
50867;BME280;36839;51.946;21.002;2023-04-19T00:18:23;100395.75;;;9.21;100.00
50867;BME280;36839;51.946;21.002;2023-04-19T00:20:52;100390.40;;;9.18;100.00
50867;BME280;36839;51.946;21.002;2023-04-19T00:23:30;100382.44;;;9.15;100.00
50867;BME280;36839;51.946;21.002;2023-04-19T00:26:02;100382.99;;;9.15;100.00
50867;BME280;36839;51.946;21.002;2023-04-19T00:28:32;100378.98;;;9.11;100.00
50867;BME280;36839;51.946;21.002;2023-04-19T00:31:02;100382.29;;;9.07;100.00
50867;BME280;36839;51.946;21.002;2023-04-19T00:33:29;100389.52;;;9.03;100.00
50867;BME280;36839;51.946;21.002;2023-04-19T00:35:57;100391.41;;;8.97;100.00
50867;BME280;36839;51.946;21.002;2023-04-19T00:38:25;100391.55;;;8.90;100.00
50867;BME280;36839;51.946;21.002;2023-04-19T00:40:57;100389.94;;;8.84;100.00
50867;BME280;36839;51.946;21.002;2023-04-19T00:43:27;100389.89;;;8.81;100.00
50867;BME280;36839;51.946;21.002;2023-04-19T00:45:54;100393.30;;;8.79;100.00
50867;BME280;36839;51.946;21.002;2023-04-19T00:48:22;100389.23;;;8.78;100.00
50867;BME280;36839;51.946;21.002;2023-04-19T00:50:50;100386.23;;;8.75;100.00
50867;BME280;36839;51.946;21.002;2023-04-19T00:53:17;100380.64;;;8.73;100.00
50867;BME280;36839;51.946;21.002;2023-04-19T00:55:45;100378.61;;;8.73;100.00
50867;BME280;36839;51.946;21.002;2023-04-19T00:58:16;100372.95;;;8.71;100.00
50867;BME280;36839;51.946;21.002;2023-04-19T01:00:43;100370.20;;;8.68;100.00
50867;BME280;36839;51.946;21.002;2023-04-19T01:03:10;100368.46;;;8.62;100.00
50867;BME280;36839;51.946;21.002;2023-04-19T01:05:39;100357.95;;;8.57;100.00
50867;BME280;36839;51.946;21.002;2023-04-19T01:08:06;100350.73;;;8.53;100.00
50867;BME280;36839;51.946;21.002;2023-04-19T01:10:34;100351.71;;;8.49;100.00
50867;BME280;36839;51.946;21.002;2023-04-19T01:13:01;100351.80;;;8.43;100.00
50867;BME280;36839;51.946;21.002;2023-04-19T01:15:44;100356.61;;;8.37;100.00
50867;BME280;36839;51.946;21.002;2023-04-19T01:18:12;100352.84;;;8.31;100.00
50867;BME280;36839;51.946;21.002;2023-04-19T01:20:40;100353.05;;;8.27;100.00
50867;BME280;36839;51.946;21.002;2023-04-19T01:23:08;100349.63;;;8.23;100.00
50867;BME280;36839;51.946;21.002;2023-04-19T01:25:38;100351.52;;;8.19;100.00
50867;BME280;36839;51.946;21.002;2023-04-19T01:28:05;100349.13;;;8.17;100.00
50867;BME280;36839;51.946;21.002;2023-04-19T01:30:34;100346.41;;;8.15;100.00
50867;BME280;36839;51.946;21.002;2023-04-19T01:33:01;100347.36;;;8.11;100.00
50867;BME280;36839;51.946;21.002;2023-04-19T01:35:29;100345.50;;;8.07;100.00
50867;BME280;36839;51.946;21.002;2023-04-19T01:37:57;100344.60;;;8.03;100.00
50867;BME280;36839;51.946;21.002;2023-04-19T01:40:28;100342.41;;;7.97;100.00
50867;BME280;36839;51.946;21.002;2023-04-19T01:42:56;100342.30;;;7.91;100.00
50867;BME280;36839;51.946;21.002;2023-04-19T01:45:23;100341.05;;;7.86;100.00
50867;BME280;36839;51.946;21.002;2023-04-19T01:47:51;100349.37;;;7.82;100.00
50867;BME280;36839;51.946;21.002;2023-04-19T01:50:18;100348.92;;;7.78;100.00
50867;BME280;36839;51.946;21.002;2023-04-19T01:52:46;100347.52;;;7.73;100.00
50867;BME280;36839;51.946;21.002;2023-04-19T01:55:13;100348.60;;;7.69;100.00
50867;BME280;36839;51.946;21.002;2023-04-19T01:57:41;100351.85;;;7.63;100.00
50867;BME280;36839;51.946;21.002;2023-04-19T02:00:09;100349.66;;;7.61;100.00
50867;BME280;36839;51.946;21.002;2023-04-19T02:02:48;100352.67;;;7.57;100.00
50867;BME280;36839;51.946;21.002;2023-04-19T02:05:15;100353.33;;;7.54;100.00
50867;BME280;36839;51.946;21.002;2023-04-19T02:07:42;100354.12;;;7.52;100.00
50867;BME280;36839;51.946;21.002;2023-04-19T02:10:10;100351.16;;;7.47;100.00
50867;BME280;36839;51.946;21.002;2023-04-19T02:12:42;100353.63;;;7.43;100.00
50867;BME280;36839;51.946;21.002;2023-04-19T02:15:09;100349.81;;;7.39;100.00
50867;BME280;36839;51.946;21.002;2023-04-19T02:17:38;100348.23;;;7.34;100.00
50867;BME280;36839;51.946;21.002;2023-04-19T02:20:07;100348.66;;;7.28;100.00
50867;BME280;36839;51.946;21.002;2023-04-19T02:22:36;100344.37;;;7.22;100.00
50867;BME280;36839;51.946;21.002;2023-04-19T02:25:03;100353.15;;;7.15;100.00
50867;BME280;36839;51.946;21.002;2023-04-19T02:27:33;100350.38;;;7.11;100.00
50867;BME280;36839;51.946;21.002;2023-04-19T02:30:00;100348.05;;;7.09;100.00
50867;BME280;36839;51.946;21.002;2023-04-19T02:32:28;100350.40;;;7.04;100.00
50867;BME280;36839;51.946;21.002;2023-04-19T02:34:55;100347.29;;;6.97;100.00
50867;BME280;36839;51.946;21.002;2023-04-19T02:37:26;100346.33;;;6.96;100.00
50867;BME280;36839;51.946;21.002;2023-04-19T02:39:54;100350.51;;;6.91;100.00
50867;BME280;36839;51.946;21.002;2023-04-19T02:42:21;100345.83;;;6.91;100.00
50867;BME280;36839;51.946;21.002;2023-04-19T02:44:48;100337.55;;;6.88;100.00
50867;BME280;36839;51.946;21.002;2023-04-19T02:47:15;100346.21;;;6.84;100.00
50867;BME280;36839;51.946;21.002;2023-04-19T02:49:43;100343.29;;;6.81;100.00
50867;BME280;36839;51.946;21.002;2023-04-19T02:52:12;100344.20;;;6.81;100.00
50867;BME280;36839;51.946;21.002;2023-04-19T02:54:40;100343.66;;;6.79;100.00
50867;BME280;36839;51.946;21.002;2023-04-19T02:57:08;100335.36;;;6.78;100.00
50867;BME280;36839;51.946;21.002;2023-04-19T02:59:37;100332.52;;;6.71;100.00
50867;BME280;36839;51.946;21.002;2023-04-19T03:02:18;100328.78;;;6.61;100.00
50867;BME280;36839;51.946;21.002;2023-04-19T03:04:47;100325.98;;;6.55;100.00
50867;BME280;36839;51.946;21.002;2023-04-19T03:07:14;100322.63;;;6.50;100.00
50867;BME280;36839;51.946;21.002;2023-04-19T03:09:42;100319.89;;;6.45;100.00
50867;BME280;36839;51.946;21.002;2023-04-19T03:12:10;100315.86;;;6.42;100.00
50867;BME280;36839;51.946;21.002;2023-04-19T03:14:37;100312.25;;;6.39;100.00
50867;BME280;36839;51.946;21.002;2023-04-19T03:17:07;100307.27;;;6.35;100.00
50867;BME280;36839;51.946;21.002;2023-04-19T03:19:36;100308.22;;;6.31;100.00
50867;BME280;36839;51.946;21.002;2023-04-19T03:22:03;100308.64;;;6.29;100.00
50867;BME280;36839;51.946;21.002;2023-04-19T03:24:31;100307.33;;;6.27;100.00
50867;BME280;36839;51.946;21.002;2023-04-19T03:26:59;100302.87;;;6.27;100.00
50867;BME280;36839;51.946;21.002;2023-04-19T03:29:29;100300.13;;;6.27;100.00
50867;BME280;36839;51.946;21.002;2023-04-19T03:31:57;100299.32;;;6.27;100.00
50867;BME280;36839;51.946;21.002;2023-04-19T03:34:25;100296.35;;;6.25;100.00
50867;BME280;36839;51.946;21.002;2023-04-19T03:36:52;100298.00;;;6.25;100.00
50867;BME280;36839;51.946;21.002;2023-04-19T03:39:19;100292.30;;;6.25;100.00
50867;BME280;36839;51.946;21.002;2023-04-19T03:41:46;100303.89;;;6.26;100.00
50867;BME280;36839;51.946;21.002;2023-04-19T03:44:13;100295.93;;;6.25;100.00
50867;BME280;36839;51.946;21.002;2023-04-19T03:46:41;100295.25;;;6.25;100.00
50867;BME280;36839;51.946;21.002;2023-04-19T03:49:07;100294.20;;;6.25;100.00
50867;BME280;36839;51.946;21.002;2023-04-19T03:51:36;100289.64;;;6.24;100.00
50867;BME280;36839;51.946;21.002;2023-04-19T03:54:15;100292.13;;;6.25;100.00
50867;BME280;36839;51.946;21.002;2023-04-19T03:56:42;100289.20;;;6.24;100.00
50867;BME280;36839;51.946;21.002;2023-04-19T03:59:09;100287.77;;;6.24;100.00
50867;BME280;36839;51.946;21.002;2023-04-19T04:01:36;100284.73;;;6.23;100.00
50867;BME280;36839;51.946;21.002;2023-04-19T04:04:08;100284.08;;;6.24;100.00
50867;BME280;36839;51.946;21.002;2023-04-19T04:06:37;100279.25;;;6.21;100.00
50867;BME280;36839;51.946;21.002;2023-04-19T04:09:12;100280.77;;;6.20;100.00
50867;BME280;36839;51.946;21.002;2023-04-19T04:11:53;100277.65;;;6.17;100.00
50867;BME280;36839;51.946;21.002;2023-04-19T04:14:23;100273.73;;;6.14;100.00
50867;BME280;36839;51.946;21.002;2023-04-19T04:16:52;100274.77;;;6.12;100.00
50867;BME280;36839;51.946;21.002;2023-04-19T04:19:20;100272.80;;;6.10;100.00
50867;BME280;36839;51.946;21.002;2023-04-19T04:21:47;100273.50;;;6.09;100.00
50867;BME280;36839;51.946;21.002;2023-04-19T04:24:17;100271.73;;;6.06;100.00
50867;BME280;36839;51.946;21.002;2023-04-19T04:26:46;100273.59;;;6.04;100.00
50867;BME280;36839;51.946;21.002;2023-04-19T04:29:21;100270.61;;;6.03;100.00
50867;BME280;36839;51.946;21.002;2023-04-19T04:31:49;100268.30;;;6.02;100.00
50867;BME280;36839;51.946;21.002;2023-04-19T04:34:16;100265.77;;;5.97;100.00
50867;BME280;36839;51.946;21.002;2023-04-19T04:36:44;100265.83;;;5.92;100.00
50867;BME280;36839;51.946;21.002;2023-04-19T04:39:11;100264.66;;;5.91;100.00
50867;BME280;36839;51.946;21.002;2023-04-19T04:41:44;100263.29;;;5.90;100.00
50867;BME280;36839;51.946;21.002;2023-04-19T04:44:15;100256.09;;;5.89;100.00
50867;BME280;36839;51.946;21.002;2023-04-19T04:46:43;100255.37;;;5.89;100.00
50867;BME280;36839;51.946;21.002;2023-04-19T04:49:11;100254.83;;;5.88;100.00
50867;BME280;36839;51.946;21.002;2023-04-19T04:51:40;100249.69;;;5.86;100.00
50867;BME280;36839;51.946;21.002;2023-04-19T04:54:08;100249.23;;;5.83;100.00
50867;BME280;36839;51.946;21.002;2023-04-19T04:56:35;100245.77;;;5.79;100.00
50867;BME280;36839;51.946;21.002;2023-04-19T04:59:03;100245.48;;;5.79;100.00
50867;BME280;36839;51.946;21.002;2023-04-19T05:01:31;100238.73;;;5.79;100.00
50867;BME280;36839;51.946;21.002;2023-04-19T05:03:59;100239.29;;;5.79;100.00
50867;BME280;36839;51.946;21.002;2023-04-19T05:06:35;100235.83;;;5.79;100.00
50867;BME280;36839;51.946;21.002;2023-04-19T05:09:02;100230.17;;;5.81;100.00
50867;BME280;36839;51.946;21.002;2023-04-19T05:11:30;100230.71;;;5.83;100.00
50867;BME280;36839;51.946;21.002;2023-04-19T05:13:58;100225.41;;;5.84;100.00
50867;BME280;36839;51.946;21.002;2023-04-19T05:16:37;100230.39;;;5.86;100.00
50867;BME280;36839;51.946;21.002;2023-04-19T05:19:05;100232.06;;;5.88;100.00
50867;BME280;36839;51.946;21.002;2023-04-19T05:21:32;100232.67;;;5.91;100.00
50867;BME280;36839;51.946;21.002;2023-04-19T05:24:01;100232.20;;;5.90;100.00
50867;BME280;36839;51.946;21.002;2023-04-19T05:26:32;100231.85;;;5.89;100.00
50867;BME280;36839;51.946;21.002;2023-04-19T05:28:59;100236.21;;;5.90;100.00
50867;BME280;36839;51.946;21.002;2023-04-19T05:31:27;100238.84;;;5.92;100.00
50867;BME280;36839;51.946;21.002;2023-04-19T05:33:54;100244.52;;;5.93;100.00
50867;BME280;36839;51.946;21.002;2023-04-19T05:36:25;100244.04;;;5.96;100.00
50867;BME280;36839;51.946;21.002;2023-04-19T05:38:52;100250.17;;;6.00;100.00
50867;BME280;36839;51.946;21.002;2023-04-19T05:41:21;100256.64;;;6.03;100.00
50867;BME280;36839;51.946;21.002;2023-04-19T05:43:48;100254.73;;;6.04;100.00
50867;BME280;36839;51.946;21.002;2023-04-19T05:46:15;100254.35;;;6.06;100.00
50867;BME280;36839;51.946;21.002;2023-04-19T05:48:43;100255.47;;;6.10;100.00
50867;BME280;36839;51.946;21.002;2023-04-19T05:51:10;100256.89;;;6.12;100.00
50867;BME280;36839;51.946;21.002;2023-04-19T05:53:38;100258.96;;;6.14;100.00
50867;BME280;36839;51.946;21.002;2023-04-19T05:56:05;100258.49;;;6.17;100.00
50867;BME280;36839;51.946;21.002;2023-04-19T05:58:34;100261.08;;;6.15;100.00
50867;BME280;36839;51.946;21.002;2023-04-19T06:01:02;100257.95;;;6.17;100.00
50867;BME280;36839;51.946;21.002;2023-04-19T06:03:32;100255.21;;;6.31;100.00
50867;BME280;36839;51.946;21.002;2023-04-19T06:06:01;100251.35;;;6.35;100.00
50867;BME280;36839;51.946;21.002;2023-04-19T06:08:31;100253.84;;;6.35;100.00
50867;BME280;36839;51.946;21.002;2023-04-19T06:10:59;100252.30;;;6.38;100.00
50867;BME280;36839;51.946;21.002;2023-04-19T06:13:27;100249.77;;;6.38;100.00
50867;BME280;36839;51.946;21.002;2023-04-19T06:15:56;100247.39;;;6.39;100.00
50867;BME280;36839;51.946;21.002;2023-04-19T06:18:25;100244.26;;;6.39;100.00
50867;BME280;36839;51.946;21.002;2023-04-19T06:20:55;100247.23;;;6.34;100.00
50867;BME280;36839;51.946;21.002;2023-04-19T06:23:26;100241.77;;;6.35;100.00
50867;BME280;36839;51.946;21.002;2023-04-19T06:25:54;100241.58;;;6.36;100.00
50867;BME280;36839;51.946;21.002;2023-04-19T06:28:21;100241.31;;;6.32;100.00
50867;BME280;36839;51.946;21.002;2023-04-19T06:30:51;100236.90;;;6.35;100.00
50867;BME280;36839;51.946;21.002;2023-04-19T06:33:18;100238.02;;;6.35;100.00
50867;BME280;36839;51.946;21.002;2023-04-19T06:35:45;100240.30;;;6.34;100.00
50867;BME280;36839;51.946;21.002;2023-04-19T06:38:15;100244.44;;;6.32;100.00
50867;BME280;36839;51.946;21.002;2023-04-19T06:40:43;100242.59;;;6.36;100.00
50867;BME280;36839;51.946;21.002;2023-04-19T06:43:10;100247.16;;;6.38;100.00
50867;BME280;36839;51.946;21.002;2023-04-19T06:45:38;100242.55;;;6.38;100.00
50867;BME280;36839;51.946;21.002;2023-04-19T06:48:07;100241.69;;;6.42;100.00
50867;BME280;36839;51.946;21.002;2023-04-19T06:50:42;100240.19;;;6.46;100.00
50867;BME280;36839;51.946;21.002;2023-04-19T06:53:13;100244.17;;;6.51;100.00
50867;BME280;36839;51.946;21.002;2023-04-19T06:55:43;100237.70;;;6.53;100.00
50867;BME280;36839;51.946;21.002;2023-04-19T06:58:10;100239.83;;;6.59;100.00
50867;BME280;36839;51.946;21.002;2023-04-19T07:00:40;100245.04;;;6.83;100.00
50867;BME280;36839;51.946;21.002;2023-04-19T07:03:08;100244.90;;;6.87;100.00
50867;BME280;36839;51.946;21.002;2023-04-19T07:05:35;100245.86;;;6.86;100.00
50867;BME280;36839;51.946;21.002;2023-04-19T07:08:02;100241.45;;;6.85;100.00
50867;BME280;36839;51.946;21.002;2023-04-19T07:10:32;100247.18;;;6.86;100.00
50867;BME280;36839;51.946;21.002;2023-04-19T07:13:00;100239.91;;;6.84;100.00
50867;BME280;36839;51.946;21.002;2023-04-19T07:15:28;100231.34;;;6.84;100.00
50867;BME280;36839;51.946;21.002;2023-04-19T07:17:55;100235.59;;;6.85;100.00
50867;BME280;36839;51.946;21.002;2023-04-19T07:20:22;100235.23;;;6.87;100.00
50867;BME280;36839;51.946;21.002;2023-04-19T07:22:50;100236.05;;;6.86;100.00
50867;BME280;36839;51.946;21.002;2023-04-19T07:25:18;100240.26;;;6.89;100.00
50867;BME280;36839;51.946;21.002;2023-04-19T07:27:46;100236.96;;;6.89;100.00
50867;BME280;36839;51.946;21.002;2023-04-19T07:30:13;100240.95;;;6.93;100.00
50867;BME280;36839;51.946;21.002;2023-04-19T07:32:41;100243.98;;;6.93;100.00
50867;BME280;36839;51.946;21.002;2023-04-19T07:35:10;100241.55;;;6.96;100.00
50867;BME280;36839;51.946;21.002;2023-04-19T07:37:37;100245.52;;;6.97;100.00
50867;BME280;36839;51.946;21.002;2023-04-19T07:40:08;100240.95;;;7.00;100.00
50867;BME280;36839;51.946;21.002;2023-04-19T07:42:36;100241.27;;;7.04;100.00
50867;BME280;36839;51.946;21.002;2023-04-19T07:45:16;100238.61;;;7.09;100.00
50867;BME280;36839;51.946;21.002;2023-04-19T07:47:43;100239.70;;;7.11;100.00
50867;BME280;36839;51.946;21.002;2023-04-19T07:50:11;100236.75;;;7.12;100.00
50867;BME280;36839;51.946;21.002;2023-04-19T07:52:40;100242.89;;;7.18;100.00
50867;BME280;36839;51.946;21.002;2023-04-19T07:55:09;100237.21;;;7.23;100.00
50867;BME280;36839;51.946;21.002;2023-04-19T07:57:36;100238.61;;;7.25;100.00
50867;BME280;36839;51.946;21.002;2023-04-19T08:00:07;100237.77;;;7.29;100.00
50867;BME280;36839;51.946;21.002;2023-04-19T08:02:38;100232.73;;;7.35;100.00
50867;BME280;36839;51.946;21.002;2023-04-19T08:05:06;100231.23;;;7.42;100.00
50867;BME280;36839;51.946;21.002;2023-04-19T08:07:36;100237.15;;;7.52;100.00
50867;BME280;36839;51.946;21.002;2023-04-19T08:10:06;100236.75;;;7.61;100.00
50867;BME280;36839;51.946;21.002;2023-04-19T08:12:35;100234.30;;;7.70;100.00
50867;BME280;36839;51.946;21.002;2023-04-19T08:15:03;100239.36;;;7.80;100.00
50867;BME280;36839;51.946;21.002;2023-04-19T08:17:30;100232.23;;;7.89;100.00
50867;BME280;36839;51.946;21.002;2023-04-19T08:20:00;100236.06;;;7.96;100.00
50867;BME280;36839;51.946;21.002;2023-04-19T08:22:28;100238.04;;;8.02;100.00
50867;BME280;36839;51.946;21.002;2023-04-19T08:24:57;100236.21;;;8.09;100.00
50867;BME280;36839;51.946;21.002;2023-04-19T08:27:24;100239.98;;;8.13;100.00
50867;BME280;36839;51.946;21.002;2023-04-19T08:29:55;100234.04;;;8.15;100.00
50867;BME280;36839;51.946;21.002;2023-04-19T08:32:24;100236.77;;;8.17;100.00
50867;BME280;36839;51.946;21.002;2023-04-19T08:34:53;100236.95;;;8.16;100.00
50867;BME280;36839;51.946;21.002;2023-04-19T08:37:22;100241.97;;;8.20;100.00
50867;BME280;36839;51.946;21.002;2023-04-19T08:39:52;100245.23;;;8.29;100.00
50867;BME280;36839;51.946;21.002;2023-04-19T08:42:23;100246.79;;;8.37;100.00
50867;BME280;36839;51.946;21.002;2023-04-19T08:44:53;100247.46;;;8.39;100.00
50867;BME280;36839;51.946;21.002;2023-04-19T08:47:24;100246.54;;;8.43;100.00
50867;BME280;36839;51.946;21.002;2023-04-19T08:50:04;100241.96;;;8.52;100.00
50867;BME280;36839;51.946;21.002;2023-04-19T08:52:36;100239.09;;;8.53;100.00
50867;BME280;36839;51.946;21.002;2023-04-19T08:55:08;100238.52;;;8.52;100.00
50867;BME280;36839;51.946;21.002;2023-04-19T08:57:44;100236.96;;;8.52;100.00
50867;BME280;36839;51.946;21.002;2023-04-19T09:00:11;100242.46;;;8.55;100.00
50867;BME280;36839;51.946;21.002;2023-04-19T09:02:51;100236.45;;;8.60;100.00
50867;BME280;36839;51.946;21.002;2023-04-19T09:05:20;100231.68;;;8.65;100.00
50867;BME280;36839;51.946;21.002;2023-04-19T09:08:29;100230.48;;;8.77;100.00
50867;BME280;36839;51.946;21.002;2023-04-19T09:11:06;100228.23;;;8.97;100.00
50867;BME280;36839;51.946;21.002;2023-04-19T09:13:35;100228.78;;;9.19;100.00
50867;BME280;36839;51.946;21.002;2023-04-19T09:16:04;100230.04;;;9.36;100.00
50867;BME280;36839;51.946;21.002;2023-04-19T09:18:52;100227.98;;;9.47;100.00
50867;BME280;36839;51.946;21.002;2023-04-19T09:21:28;100224.80;;;9.50;100.00
50867;BME280;36839;51.946;21.002;2023-04-19T09:23:58;100225.47;;;9.37;100.00
50867;BME280;36839;51.946;21.002;2023-04-19T09:26:27;100223.32;;;9.30;100.00
50867;BME280;36839;51.946;21.002;2023-04-19T09:29:02;100226.17;;;9.36;100.00
50867;BME280;36839;51.946;21.002;2023-04-19T09:31:35;100226.95;;;9.43;100.00
50867;BME280;36839;51.946;21.002;2023-04-19T09:34:17;100226.84;;;9.42;100.00
50867;BME280;36839;51.946;21.002;2023-04-19T09:36:47;100229.36;;;9.54;100.00
50867;BME280;36839;51.946;21.002;2023-04-19T09:39:32;100227.46;;;9.57;100.00
50867;BME280;36839;51.946;21.002;2023-04-19T09:42:01;100227.14;;;9.67;100.00
50867;BME280;36839;51.946;21.002;2023-04-19T09:44:29;100223.41;;;9.68;100.00
50867;BME280;36839;51.946;21.002;2023-04-19T09:47:20;100224.75;;;9.77;100.00
50867;BME280;36839;51.946;21.002;2023-04-19T09:52:51;100222.64;;;9.83;100.00
50867;BME280;36839;51.946;21.002;2023-04-19T09:55:21;100218.21;;;9.89;100.00
50867;BME280;36839;51.946;21.002;2023-04-19T09:57:53;100218.89;;;10.00;100.00
50867;BME280;36839;51.946;21.002;2023-04-19T10:00:21;100225.40;;;10.18;100.00
50867;BME280;36839;51.946;21.002;2023-04-19T10:02:52;100224.93;;;10.29;100.00
50867;BME280;36839;51.946;21.002;2023-04-19T10:05:25;100225.46;;;10.39;100.00
50867;BME280;36839;51.946;21.002;2023-04-19T10:07:52;100225.96;;;10.49;100.00
50867;BME280;36839;51.946;21.002;2023-04-19T10:10:22;100230.48;;;10.66;100.00
50867;BME280;36839;51.946;21.002;2023-04-19T10:12:53;100229.53;;;10.71;100.00
50867;BME280;36839;51.946;21.002;2023-04-19T10:15:23;100232.13;;;10.72;100.00
50867;BME280;36839;51.946;21.002;2023-04-19T10:17:52;100229.92;;;10.64;100.00
50867;BME280;36839;51.946;21.002;2023-04-19T10:20:31;100228.23;;;10.49;100.00
50867;BME280;36839;51.946;21.002;2023-04-19T10:22:59;100232.30;;;10.38;100.00
50867;BME280;36839;51.946;21.002;2023-04-19T10:25:28;100239.01;;;10.23;100.00
50867;BME280;36839;51.946;21.002;2023-04-19T10:28:01;100239.05;;;10.13;100.00
50867;BME280;36839;51.946;21.002;2023-04-19T10:30:29;100240.58;;;10.10;100.00
50867;BME280;36839;51.946;21.002;2023-04-19T10:32:57;100240.52;;;10.02;100.00
50867;BME280;36839;51.946;21.002;2023-04-19T10:35:34;100242.25;;;9.96;100.00
50867;BME280;36839;51.946;21.002;2023-04-19T10:38:35;100242.88;;;9.98;100.00
50867;BME280;36839;51.946;21.002;2023-04-19T10:41:05;100240.67;;;10.08;100.00
50867;BME280;36839;51.946;21.002;2023-04-19T10:44:08;100243.47;;;10.15;100.00
50867;BME280;36839;51.946;21.002;2023-04-19T10:46:38;100242.13;;;10.21;100.00
50867;BME280;36839;51.946;21.002;2023-04-19T10:49:27;100242.39;;;10.23;100.00
50867;BME280;36839;51.946;21.002;2023-04-19T10:51:57;100242.04;;;10.29;100.00
50867;BME280;36839;51.946;21.002;2023-04-19T10:57:03;100245.90;;;10.38;100.00
50867;BME280;36839;51.946;21.002;2023-04-19T10:59:37;100241.98;;;10.42;100.00
50867;BME280;36839;51.946;21.002;2023-04-19T11:04:58;100248.12;;;10.65;100.00
50867;BME280;36839;51.946;21.002;2023-04-19T11:07:37;100246.13;;;10.80;100.00
50867;BME280;36839;51.946;21.002;2023-04-19T11:10:09;100245.05;;;10.91;100.00
50867;BME280;36839;51.946;21.002;2023-04-19T11:12:43;100243.50;;;11.11;100.00
50867;BME280;36839;51.946;21.002;2023-04-19T11:15:22;100240.83;;;11.31;100.00
50867;BME280;36839;51.946;21.002;2023-04-19T11:17:51;100237.57;;;11.43;100.00
50867;BME280;36839;51.946;21.002;2023-04-19T11:20:22;100235.98;;;11.55;100.00
50867;BME280;36839;51.946;21.002;2023-04-19T11:22:52;100238.85;;;11.67;100.00
50867;BME280;36839;51.946;21.002;2023-04-19T11:25:21;100240.17;;;11.51;100.00
50867;BME280;36839;51.946;21.002;2023-04-19T11:27:52;100241.73;;;11.52;100.00
50867;BME280;36839;51.946;21.002;2023-04-19T11:30:21;100240.40;;;11.56;100.00
50867;BME280;36839;51.946;21.002;2023-04-19T11:32:56;100238.30;;;11.54;100.00
50867;BME280;36839;51.946;21.002;2023-04-19T11:35:31;100235.53;;;11.47;100.00
50867;BME280;36839;51.946;21.002;2023-04-19T11:37:59;100234.86;;;11.58;100.00
50867;BME280;36839;51.946;21.002;2023-04-19T11:40:28;100236.31;;;11.68;100.00
50867;BME280;36839;51.946;21.002;2023-04-19T11:42:59;100235.91;;;11.75;100.00
50867;BME280;36839;51.946;21.002;2023-04-19T11:45:39;100232.91;;;11.66;100.00
50867;BME280;36839;51.946;21.002;2023-04-19T11:48:32;100232.54;;;11.73;100.00
50867;BME280;36839;51.946;21.002;2023-04-19T11:51:01;100233.83;;;11.86;100.00
50867;BME280;36839;51.946;21.002;2023-04-19T11:53:31;100234.14;;;12.02;100.00
50867;BME280;36839;51.946;21.002;2023-04-19T11:56:07;100235.58;;;12.06;100.00
50867;BME280;36839;51.946;21.002;2023-04-19T11:58:40;100237.27;;;12.15;100.00
50867;BME280;36839;51.946;21.002;2023-04-19T12:01:18;100235.53;;;12.21;100.00
50867;BME280;36839;51.946;21.002;2023-04-19T12:03:52;100232.69;;;12.08;100.00
50867;BME280;36839;51.946;21.002;2023-04-19T12:06:28;100234.81;;;12.05;100.00
50867;BME280;36839;51.946;21.002;2023-04-19T12:09:06;100237.81;;;11.88;100.00
50867;BME280;36839;51.946;21.002;2023-04-19T12:11:45;100237.41;;;11.75;100.00
50867;BME280;36839;51.946;21.002;2023-04-19T12:14:17;100233.88;;;11.69;100.00
50867;BME280;36839;51.946;21.002;2023-04-19T12:19:35;100241.45;;;11.60;100.00
50867;BME280;36839;51.946;21.002;2023-04-19T12:22:14;100247.26;;;11.43;100.00
50867;BME280;36839;51.946;21.002;2023-04-19T12:24:43;100252.23;;;11.39;100.00
50867;BME280;36839;51.946;21.002;2023-04-19T12:27:17;100248.84;;;11.30;100.00
50867;BME280;36839;51.946;21.002;2023-04-19T12:29:44;100253.92;;;11.23;100.00
50867;BME280;36839;51.946;21.002;2023-04-19T12:32:12;100254.36;;;11.24;100.00
50867;BME280;36839;51.946;21.002;2023-04-19T12:34:46;100253.98;;;11.21;100.00
50867;BME280;36839;51.946;21.002;2023-04-19T12:37:15;100254.41;;;11.23;100.00
50867;BME280;36839;51.946;21.002;2023-04-19T12:39:42;100254.91;;;11.26;100.00
50867;BME280;36839;51.946;21.002;2023-04-19T12:42:10;100257.40;;;11.19;100.00
50867;BME280;36839;51.946;21.002;2023-04-19T12:44:38;100257.27;;;11.10;100.00
50867;BME280;36839;51.946;21.002;2023-04-19T12:47:11;100258.41;;;11.05;100.00
50867;BME280;36839;51.946;21.002;2023-04-19T12:49:39;100258.46;;;11.05;100.00
50867;BME280;36839;51.946;21.002;2023-04-19T12:52:09;100253.11;;;11.03;100.00
50867;BME280;36839;51.946;21.002;2023-04-19T12:54:36;100253.66;;;11.06;100.00
50867;BME280;36839;51.946;21.002;2023-04-19T12:57:04;100250.56;;;11.08;100.00
50867;BME280;36839;51.946;21.002;2023-04-19T12:59:35;100250.78;;;11.00;100.00
50867;BME280;36839;51.946;21.002;2023-04-19T13:02:05;100252.78;;;10.87;100.00
50867;BME280;36839;51.946;21.002;2023-04-19T13:04:33;100255.88;;;10.80;100.00